African Loon — 3EFF9 — position and weather

sailwx.info

Track history (hours):
 
Tides and Currents Weather Stations Pressure Air Temp Water Temp Dewpoint Dewpoint Depression Visibility Wind Speed Wind Dir Waves Ship Positions

African Loon

Last reported at 2016-Jun-30 14:15 UTC. Time now 2016-Jul-01 13:38 UTC.
Position N 35°24' W 010°22'.

Length 200 m; draft 7.1 m.

Type: Cargo ship. MMSI: 374319000.

Date/timePositionNaut miles runAvg speedWind from/ knotsBaromVisibWave heightAir tempDewpointWater temp
2016-Jun-30 14:15N 35°24' W 010°22'912.0
2016-Jun-30 13:32N 35°26' W 010°12'1212.0
2016-Jun-30 12:33N 35°30' W 009°58'1211.4
2016-Jun-30 11:32N 35°29' W 009°44'9211.5
2016-Jun-30 03:32N 35°44' W 007°52'11112.1
2016-Jun-29 18:18N 35°57' W 005°35'810.4
2016-Jun-29 17:33N 35°60' W 005°26'7 7.4
2016-Jun-29 16:34N 35°55' W 005°19'0 0.1
2016-Jun-29 15:33N 35°55' W 005°20'0 0.0
2016-Jun-29 14:33N 35°55' W 005°20'0 0.1
2016-Jun-29 13:33N 35°55' W 005°20'0 0.1
2016-Jun-29 12:33N 35°55' W 005°19'0 0.0
2016-Jun-29 11:33N 35°55' W 005°19'0 0.0
2016-Jun-29 10:33N 35°55' W 005°19'0 0.0
2016-Jun-29 09:33N 35°55' W 005°19'0 0.0
2016-Jun-29 08:30N 35°55' W 005°19'0 0.0
2016-Jun-29 07:33N 35°55' W 005°19'0 0.0
2016-Jun-29 06:24N 35°55' W 005°20'0 0.1
2016-Jun-29 05:33N 35°55' W 005°20'2 1.7
2016-Jun-29 04:33N 35°55' W 005°18'8 7.4
2016-Jun-29 03:31N 35°57' W 005°08'20212.4
2016-Jun-28 11:19N 36°26' W 001°01'1112.3
2016-Jun-28 10:24N 36°28' W 000°47'4712.2
2016-Jun-28 06:32N 36°36' E 000°10'2412.2
2016-Jun-28 04:33N 36°40' E 000°40'1212.2
2016-Jun-28 03:33N 36°42' E 000°55'2712.0
2016-Jun-28 01:20N 36°47' E 001°28'4612.0
2016-Jun-27 21:32N 36°55' E 002°24'1211.6
2016-Jun-27 20:33N 36°57' E 002°38'1511.3
2016-Jun-27 19:15N 36°60' E 002°56'2112.1
2016-Jun-27 17:30N 37°04' E 003°22'1413.5
2016-Jun-27 16:28N 37°06' E 003°39'26612.6
2016-Jun-26 19:18N 37°39' E 009°11'1012.0
2016-Jun-26 18:28N 37°39' E 009°24'1211.9
2016-Jun-26 17:27N 37°39' E 009°39'3911.9
2016-Jun-26 14:08N 37°36' E 010°29'1012.0
2016-Jun-26 13:19N 37°33' E 010°41'1012.1
2016-Jun-26 12:30N 37°31' E 010°53'1212.2
2016-Jun-26 11:33N 37°28' E 011°07'1111.6
2016-Jun-26 10:33N 37°22' E 011°20'1211.8
2016-Jun-26 09:33N 37°11' E 011°23'1511.8
2016-Jun-26 08:15N 36°56' E 011°26'  
Track history (hours):
 
Tides and Currents Weather Stations Pressure Air Temp Water Temp Dewpoint Dewpoint Depression Visibility Wind Speed Wind Dir Waves Ship Positions

African Loon

Last reported at 2016-Jun-30 14:15 UTC. Time now 2016-Jul-01 13:38 UTC.
Position N 35°24' W 010°22'.

Length 200 m; draft 7.1 m.

Type: Cargo ship. MMSI: 374319000.

Date/timePositionNaut miles runAvg speedWind from/ knotsBaromVisibWave heightAir tempDewpointWater temp
2016-Jun-30 14:15N 35°24' W 010°22'912.0
2016-Jun-30 13:32N 35°26' W 010°12'1212.0
2016-Jun-30 12:33N 35°30' W 009°58'1211.4
2016-Jun-30 11:32N 35°29' W 009°44'9211.5
2016-Jun-30 03:32N 35°44' W 007°52'11112.1
2016-Jun-29 18:18N 35°57' W 005°35'810.4
2016-Jun-29 17:33N 35°60' W 005°26'7 7.4
2016-Jun-29 16:34N 35°55' W 005°19'0 0.1
2016-Jun-29 15:33N 35°55' W 005°20'0 0.0
2016-Jun-29 14:33N 35°55' W 005°20'0 0.1
2016-Jun-29 13:33N 35°55' W 005°20'0 0.1
2016-Jun-29 12:33N 35°55' W 005°19'0 0.0
2016-Jun-29 11:33N 35°55' W 005°19'0 0.0
2016-Jun-29 10:33N 35°55' W 005°19'0 0.0
2016-Jun-29 09:33N 35°55' W 005°19'0 0.0
2016-Jun-29 08:30N 35°55' W 005°19'0 0.0
2016-Jun-29 07:33N 35°55' W 005°19'0 0.0
2016-Jun-29 06:24N 35°55' W 005°20'0 0.1
2016-Jun-29 05:33N 35°55' W 005°20'2 1.7
2016-Jun-29 04:33N 35°55' W 005°18'8 7.4
2016-Jun-29 03:31N 35°57' W 005°08'20212.4
2016-Jun-28 11:19N 36°26' W 001°01'1112.3
2016-Jun-28 10:24N 36°28' W 000°47'4712.2
2016-Jun-28 06:32N 36°36' E 000°10'2412.2
2016-Jun-28 04:33N 36°40' E 000°40'1212.2
2016-Jun-28 03:33N 36°42' E 000°55'2712.0
2016-Jun-28 01:20N 36°47' E 001°28'4612.0
2016-Jun-27 21:32N 36°55' E 002°24'1211.6
2016-Jun-27 20:33N 36°57' E 002°38'1511.3
2016-Jun-27 19:15N 36°60' E 002°56'2112.1
2016-Jun-27 17:30N 37°04' E 003°22'1413.5
2016-Jun-27 16:28N 37°06' E 003°39'26612.6
2016-Jun-26 19:18N 37°39' E 009°11'1012.0
2016-Jun-26 18:28N 37°39' E 009°24'1211.9
2016-Jun-26 17:27N 37°39' E 009°39'3911.9
2016-Jun-26 14:08N 37°36' E 010°29'1012.0
2016-Jun-26 13:19N 37°33' E 010°41'1012.1
2016-Jun-26 12:30N 37°31' E 010°53'1212.2
2016-Jun-26 11:33N 37°28' E 011°07'1111.6
2016-Jun-26 10:33N 37°22' E 011°20'1211.8
2016-Jun-26 09:33N 37°11' E 011°23'1511.8
2016-Jun-26 08:15N 36°56' E 011°26'  

Dump ship's entire track history